Time,TemperatureF,DewpointF,PressureIn,WindDirection,WindDirectionDegrees,WindSpeedMPH,WindSpeedGustMPH,Humidity,HourlyPrecipIn,Conditions,Clouds,dailyrainin,SoftwareType,DateUTC
2015-02-28 00:15:00,26.4,9.0,30.43,East,80,2.0,-999.0,48,-99.99,,,0.00,weatherlink.com 1.10,2015-02-28 06:15:00,
2015-02-28 00:33:00,26.4,9.0,30.44,NE,47,6.0,-999.0,48,-99.99,,,0.00,weatherlink.com 1.10,2015-02-28 06:33:00,
2015-02-28 00:49:00,26.4,9.0,30.43,ENE,65,2.0,-999.0,49,-99.99,,,0.00,weatherlink.com 1.10,2015-02-28 06:49:00,
2015-02-28 01:07:00,26.4,10.0,30.43,ENE,77,9.0,-999.0,50,-99.99,,,0.00,weatherlink.com 1.10,2015-02-28 07:07:00,
2015-02-28 01:23:00,26.3,10.0,30.43,ENE,66,4.0,-999.0,50,-99.99,,,0.00,weatherlink.com 1.10,2015-02-28 07:23:00,
2015-02-28 01:40:00,26.4,10.0,30.43,East,82,2.0,-999.0,50,-99.99,,,0.00,weatherlink.com 1.10,2015-02-28 07:40:00,
2015-02-28 01:57:00,26.4,9.0,30.43,ENE,59,6.0,-999.0,49,-99.99,,,0.00,weatherlink.com 1.10,2015-02-28 07:57:00,
2015-02-28 02:14:00,26.4,9.0,30.42,ENE,60,6.0,-999.0,49,-99.99,,,0.00,weatherlink.com 1.10,2015-02-28 08:14:00,
2015-02-28 02:30:00,26.4,9.0,30.41,NE,49,5.0,-999.0,49,-99.99,,,0.00,weatherlink.com 1.10,2015-02-28 08:30:00,
2015-02-28 02:48:00,26.4,9.0,30.42,ENE,67,5.0,-999.0,48,-99.99,,,0.00,weatherlink.com 1.10,2015-02-28 08:48:00,
2015-02-28 03:05:00,26.4,9.0,30.42,ENE,58,5.0,-999.0,48,-99.99,,,0.00,weatherlink.com 1.10,2015-02-28 09:05:00,
2015-02-28 03:22:00,26.6,9.0,30.42,ENE,66,4.0,-999.0,48,-99.99,,,0.00,weatherlink.com 1.10,2015-02-28 09:22:00,
2015-02-28 03:38:00,26.4,9.0,30.43,ENE,57,2.0,-999.0,48,-99.99,,,0.00,weatherlink.com 1.10,2015-02-28 09:38:00,
2015-02-28 03:56:00,26.4,9.0,30.43,NE,36,7.0,-999.0,48,-99.99,,,0.00,weatherlink.com 1.10,2015-02-28 09:56:00,
2015-02-28 04:12:00,26.3,9.0,30.43,ENE,58,4.0,-999.0,49,-99.99,,,0.00,weatherlink.com 1.10,2015-02-28 10:12:00,
2015-02-28 04:30:00,26.3,9.0,30.43,NE,46,6.0,-999.0,49,-99.99,,,0.00,weatherlink.com 1.10,2015-02-28 10:30:00,
2015-02-28 04:46:00,26.1,10.0,30.44,NE,40,5.0,-999.0,50,-99.99,,,0.00,weatherlink.com 1.10,2015-02-28 10:46:00,
2015-02-28 05:04:00,26.1,10.0,30.44,NE,43,7.0,-999.0,50,-99.99,,,0.00,weatherlink.com 1.10,2015-02-28 11:04:00,
2015-02-28 05:21:00,26.0,10.0,30.45,NE,42,9.0,-999.0,51,-99.99,,,0.00,weatherlink.com 1.10,2015-02-28 11:21:00,
2015-02-28 05:37:00,26.0,10.0,30.44,NE,46,6.0,-999.0,52,-99.99,,,0.00,weatherlink.com 1.10,2015-02-28 11:37:00,
2015-02-28 05:55:00,25.8,10.0,30.45,NE,51,10.0,-999.0,52,-99.99,,,0.00,weatherlink.com 1.10,2015-02-28 11:55:00,
2015-02-28 06:11:00,25.7,11.0,30.45,NE,46,6.0,-999.0,53,-99.99,,,0.00,weatherlink.com 1.10,2015-02-28 12:11:00,
2015-02-28 06:29:00,25.7,11.0,30.45,NE,49,10.0,-999.0,53,-99.99,,,0.00,weatherlink.com 1.10,2015-02-28 12:29:00,
2015-02-28 06:45:00,25.7,11.0,30.45,NE,43,6.0,-999.0,53,-99.99,,,0.00,weatherlink.com 1.10,2015-02-28 12:45:00,
2015-02-28 07:19:00,26.0,11.0,30.46,NE,39,6.0,-999.0,53,-99.99,,,0.00,weatherlink.com 1.10,2015-02-28 13:19:00,
2015-02-28 07:36:00,25.8,11.0,30.46,NE,45,8.0,-999.0,54,-99.99,,,0.00,weatherlink.com 1.10,2015-02-28 13:36:00,
2015-02-28 07:53:00,26.1,11.0,30.47,NE,43,7.0,-999.0,54,-99.99,,,0.00,weatherlink.com 1.10,2015-02-28 13:53:00,
2015-02-28 08:10:00,25.8,12.0,30.46,NNE,32,10.0,-999.0,55,-99.99,,,0.00,weatherlink.com 1.10,2015-02-28 14:10:00,
2015-02-28 08:27:00,26.1,12.0,30.47,ENE,59,6.0,-999.0,55,-99.99,,,0.00,weatherlink.com 1.10,2015-02-28 14:27:00,
2015-02-28 08:44:00,26.6,12.0,30.47,NE,35,9.0,-999.0,54,-99.99,,,0.00,weatherlink.com 1.10,2015-02-28 14:44:00,
2015-02-28 09:01:00,27.0,11.0,30.47,NE,38,10.0,-999.0,52,-99.99,,,0.00,weatherlink.com 1.10,2015-02-28 15:01:00,
2015-02-28 09:18:00,27.6,12.0,30.47,NE,54,10.0,-999.0,52,-99.99,,,0.00,weatherlink.com 1.10,2015-02-28 15:18:00,
2015-02-28 09:34:00,28.1,12.0,30.46,ENE,63,7.0,-999.0,51,-99.99,,,0.00,weatherlink.com 1.10,2015-02-28 15:34:00,
2015-02-28 09:52:00,28.5,12.0,30.46,ENE,69,5.0,-999.0,50,-99.99,,,0.00,weatherlink.com 1.10,2015-02-28 15:52:00,
2015-02-28 10:09:00,29.0,12.0,30.46,NE,53,5.0,-999.0,49,-99.99,,,0.00,weatherlink.com 1.10,2015-02-28 16:09:00,
2015-02-28 10:26:00,30.0,12.0,30.45,ENE,59,7.0,-999.0,48,-99.99,,,0.00,weatherlink.com 1.10,2015-02-28 16:26:00,
2015-02-28 10:43:00,31.3,13.0,30.45,NE,55,5.0,-999.0,46,-99.99,,,0.00,weatherlink.com 1.10,2015-02-28 16:43:00,
2015-02-28 10:59:00,32.4,13.0,30.44,NE,39,9.0,-999.0,44,-99.99,,,0.00,weatherlink.com 1.10,2015-02-28 16:59:00,
2015-02-28 11:17:00,32.5,12.0,30.44,NE,55,5.0,-999.0,43,-99.99,,,0.00,weatherlink.com 1.10,2015-02-28 17:17:00,
2015-02-28 11:33:00,33.7,13.0,30.43,East,86,4.0,-999.0,42,-99.99,,,0.00,weatherlink.com 1.10,2015-02-28 17:33:00,
2015-02-28 11:51:00,34.7,13.0,30.42,North,9,9.0,-999.0,41,-99.99,,,0.00,weatherlink.com 1.10,2015-02-28 17:51:00,
2015-02-28 12:07:00,35.6,13.0,30.42,ENE,61,0.0,-999.0,39,-99.99,,,0.00,weatherlink.com 1.10,2015-02-28 18:07:00,
2015-02-28 12:25:00,37.9,13.0,30.40,NE,45,6.0,-999.0,36,-99.99,,,0.00,weatherlink.com 1.10,2015-02-28 18:25:00,
2015-02-28 12:41:00,38.2,13.0,30.38,NE,48,5.0,-999.0,36,-99.99,,,0.00,weatherlink.com 1.10,2015-02-28 18:41:00,
2015-02-28 12:59:00,40.1,14.0,30.36,ESE,117,4.0,-999.0,35,-99.99,,,0.00,weatherlink.com 1.10,2015-02-28 18:59:00,
2015-02-28 13:15:00,41.8,13.0,30.34,SE,133,0.0,-999.0,31,-99.99,,,0.00,weatherlink.com 1.10,2015-02-28 19:15:00,